Time;durP1;ratioP1;P1;durP2;ratioP2;P2;SDS_P1;SDS_P2;PMS_P1;PMS_P2;Temp;Humidity;BMP_temperature;BMP_pressure;BME280_temperature;BME280_humidity;BME280_pressure;Samples;Min_cycle;Max_cycle;Signal;HPM_P1;HPM_P2
2022/03/03 00:00:38;;;;;;;;;;;;;;;1.38;70.14;99964.19;4972800;28;19922;-75
2022/03/03 00:03:03;;;;;;;;;;;;;;;1.34;70.00;99965.06;4970652;28;19933;-75
2022/03/03 00:05:28;;;;;;;;;;;;;;;1.35;69.77;99961.59;4971497;28;19953;-75
2022/03/03 00:07:54;;;;;;;;;;;;;;;1.35;69.99;99966.81;4971704;28;19992;-76
2022/03/03 00:10:19;;;;;;;;;;;;;;;1.40;69.94;99970.28;4968774;28;19926;-76
2022/03/03 00:12:44;;;;;;;;;;;;;;;1.37;69.96;99970.28;4969296;28;19922;-75
2022/03/03 00:15:10;;;;;;;;;;;;;;;1.42;70.08;99964.19;4968991;28;19928;-78
2022/03/03 00:17:35;;;;;;;;;;;;;;;1.40;69.82;99960.69;4970078;28;19949;-75
2022/03/03 00:20:00;;;;;;;;;;;;;;;1.42;69.81;99965.91;4971256;28;19968;-75
2022/03/03 00:22:26;;;;;;;;;;;;;;;1.41;69.81;99957.22;4973130;28;19978;-78
2022/03/03 04:33:13;;;;;;;;;;;;;;;1.95;87.24;99822.84;4992889;23;20036;-75
2022/03/03 04:35:39;;;;;;;;;;;;;;;1.90;87.23;99820.28;4975024;28;20377;-76
2022/03/03 04:38:04;;;;;;;;;;;;;;;1.89;86.90;99823.75;4976873;28;20009;-76
2022/03/03 04:40:29;;;;;;;;;;;;;;;1.92;86.43;99821.13;4977023;28;19925;-76
2022/03/03 04:42:54;;;;;;;;;;;;;;;1.71;86.13;99824.75;4977012;28;20380;-75
2022/03/03 04:45:19;;;;;;;;;;;;;;;1.79;85.95;99822.94;4976898;28;19918;-76
2022/03/03 04:47:45;;;;;;;;;;;;;;;1.75;85.52;99822.97;4975693;28;19918;-77
2022/03/03 04:50:10;;;;;;;;;;;;;;;1.60;85.23;99824.81;4976812;28;19914;-76
2022/03/03 04:52:36;;;;;;;;;;;;;;;1.77;85.05;99829.06;4975295;28;19972;-77
2022/03/03 04:55:04;;;;;;;;;;;;;;;1.66;84.77;99825.66;4976798;28;19919;-77
2022/03/03 04:57:29;;;;;;;;;;;;;;;1.55;84.61;99823.13;4976872;28;19918;-78
2022/03/03 04:59:54;;;;;;;;;;;;;;;1.60;84.21;99822.19;4976657;28;19918;-79
2022/03/03 05:02:19;;;;;;;;;;;;;;;1.43;83.78;99814.44;4975319;28;19937;-77
2022/03/03 05:04:45;;;;;;;;;;;;;;;1.73;86.21;99824.75;4976596;28;19928;-78
2022/03/03 05:07:10;;;;;;;;;;;;;;;1.74;87.64;99816.91;4975238;28;19918;-78
2022/03/03 05:09:36;;;;;;;;;;;;;;;1.74;88.19;99808.16;4976359;28;20293;-78
2022/03/03 05:12:02;;;;;;;;;;;;;;;1.74;88.01;99803.84;4974711;28;20250;-79
2022/03/03 05:14:27;;;;;;;;;;;;;;;1.63;88.01;99809.13;4975081;28;19929;-78
2022/03/03 05:16:52;;;;;;;;;;;;;;;1.57;87.93;99808.28;4973897;28;19918;-78
2022/03/03 05:19:17;;;;;;;;;;;;;;;1.55;88.03;99810.06;4976193;28;19988;-77
2022/03/03 05:21:43;;;;;;;;;;;;;;;1.62;87.55;99807.38;4976360;28;19961;-78
2022/03/03 05:24:08;;;;;;;;;;;;;;;1.52;87.54;99813.53;4976113;28;19918;-78
2022/03/03 05:26:34;;;;;;;;;;;;;;;1.52;87.38;99808.31;4976345;28;19929;-77
2022/03/03 05:28:59;;;;;;;;;;;;;;;1.49;87.09;99800.50;4975985;28;20262;-78
2022/03/03 05:31:24;;;;;;;;;;;;;;;1.34;86.67;99797.97;4974727;28;19922;-78
2022/03/03 05:33:50;;;;;;;;;;;;;;;1.43;86.92;99798.78;4975785;28;20397;-78
2022/03/03 05:36:15;;;;;;;;;;;;;;;1.34;86.30;99791.00;4974654;28;19969;-78
2022/03/03 05:38:41;;;;;;;;;;;;;;;1.25;86.13;99804.97;4975981;28;20365;-78
2022/03/03 05:41:07;;;;;;;;;;;;;;;1.24;85.76;99798.00;4975783;28;19922;-78
2022/03/03 05:43:33;;;;;;;;;;;;;;;1.24;85.70;99798.00;4974569;28;19972;-78
2022/03/03 08:45:17;;;;;;;;;;;;;;;0.81;77.06;99761.63;4970511;28;19933;-77
2022/03/03 08:47:42;;;;;;;;;;;;;;;0.79;77.10;99763.41;4972604;28;19973;-77
2022/03/03 08:50:13;;;;;;;;;;;;;;;0.78;76.99;99766.00;4971782;28;19922;-77
2022/03/03 08:52:39;;;;;;;;;;;;;;;0.78;76.93;99759.03;4955822;28;19926;-79
2022/03/03 08:55:06;;;;;;;;;;;;;;;0.79;76.85;99757.31;4972756;28;19919;-77
2022/03/03 08:57:31;;;;;;;;;;;;;;;0.81;76.88;99747.75;4971565;28;19992;-79
2022/03/03 08:59:56;;;;;;;;;;;;;;;0.82;76.98;99744.28;4973020;28;20365;-79
2022/03/03 09:02:21;;;;;;;;;;;;;;;0.81;76.69;99748.59;4972609;28;19925;-77
2022/03/03 09:04:47;;;;;;;;;;;;;;;0.84;76.63;99743.38;4972895;28;20016;-77
2022/03/03 09:07:13;;;;;;;;;;;;;;;0.84;76.68;99750.34;4972749;28;20282;-77
2022/03/03 09:09:38;;;;;;;;;;;;;;;0.80;76.60;99751.22;4972816;28;19973;-77
2022/03/03 09:12:04;;;;;;;;;;;;;;;0.80;76.44;99754.72;4971397;28;19923;-77
2022/03/03 09:14:29;;;;;;;;;;;;;;;0.81;76.72;99751.22;4972148;28;20018;-78
2022/03/03 09:16:55;;;;;;;;;;;;;;;0.82;76.69;99752.94;4972806;28;19925;-78
2022/03/03 09:19:21;;;;;;;;;;;;;;;0.83;76.65;99759.91;4974504;28;19920;-79
2022/03/03 09:21:46;;;;;;;;;;;;;;;0.81;76.78;99764.25;4976132;28;19925;-79
2022/03/03 09:24:12;;;;;;;;;;;;;;;0.88;76.36;99754.69;4976257;28;19926;-77
2022/03/03 09:26:37;;;;;;;;;;;;;;;0.87;76.49;99747.72;4974420;28;19921;-77
2022/03/03 09:29:02;;;;;;;;;;;;;;;0.86;76.45;99754.69;4975329;28;19962;-76
2022/03/03 09:31:27;;;;;;;;;;;;;;;0.87;76.19;99758.16;4976187;28;19918;-78
2022/03/03 09:33:53;;;;;;;;;;;;;;;0.92;75.90;99755.53;4976073;28;20292;-78
2022/03/03 09:36:18;;;;;;;;;;;;;;;0.89;75.94;99757.28;4976078;28;19918;-80
2022/03/03 09:38:44;;;;;;;;;;;;;;;0.87;75.80;99752.94;4976123;28;19922;-78
2022/03/03 09:41:09;;;;;;;;;;;;;;;0.87;75.59;99761.63;4975547;28;19925;-77
2022/03/03 09:43:34;;;;;;;;;;;;;;;0.94;75.75;99759.00;4974596;28;20437;-78
2022/03/03 09:45:59;;;;;;;;;;;;;;;0.94;75.38;99753.78;4975880;28;19924;-79
2022/03/03 09:48:25;;;;;;;;;;;;;;;0.85;75.20;99750.34;4974464;28;19930;-80
2022/03/03 09:50:50;;;;;;;;;;;;;;;0.95;75.07;99752.91;4975867;28;19974;-79
2022/03/03 09:53:19;;;;;;;;;;;;;;;0.92;75.10;99761.59;4975485;28;19918;-79
2022/03/03 09:55:45;;;;;;;;;;;;;;;0.94;75.20;99748.56;4974980;28;19922;-80
2022/03/03 09:58:11;;;;;;;;;;;;;;;0.92;74.88;99747.69;4973030;28;19969;-80
2022/03/03 10:00:40;;;;;;;;;;;;;;;0.90;74.84;99745.09;4974270;28;19918;-79
2022/03/03 10:03:14;;;;;;;;;;;;;;;0.96;74.78;99746.81;4975009;28;20017;-79
2022/03/03 10:05:45;;;;;;;;;;;;;;;0.94;74.76;99748.56;4975394;28;19996;-79
2022/03/03 10:08:11;;;;;;;;;;;;;;;0.94;74.54;99743.34;4975308;28;20373;-80
2022/03/03 10:10:38;;;;;;;;;;;;;;;0.94;74.53;99751.16;4975411;28;19917;-79
2022/03/03 10:13:04;;;;;;;;;;;;;;;0.99;74.43;99745.06;4988213;28;19925;-78
2022/03/03 10:15:30;;;;;;;;;;;;;;;0.95;74.32;99734.66;4975330;28;20016;-79
2022/03/03 10:17:57;;;;;;;;;;;;;;;0.93;74.39;99733.81;4975385;28;19964;-79
2022/03/03 10:20:23;;;;;;;;;;;;;;;0.93;74.43;99728.56;4975189;28;19922;-79
2022/03/03 10:22:57;;;;;;;;;;;;;;;0.98;74.44;99722.44;4973764;28;19924;-79
2022/03/03 10:25:30;;;;;;;;;;;;;;;0.87;74.43;99725.09;4974432;28;19922;-80
2022/03/03 10:27:55;;;;;;;;;;;;;;;0.97;74.61;99720.69;4973267;28;19914;-79
2022/03/03 10:30:21;;;;;;;;;;;;;;;0.94;74.33;99725.06;4974192;28;20353;-79
2022/03/03 10:32:47;;;;;;;;;;;;;;;0.98;74.23;99730.28;4973815;28;19922;-77
2022/03/03 10:35:14;;;;;;;;;;;;;;;0.90;73.99;99724.22;4973574;28;19925;-77
2022/03/03 10:37:41;;;;;;;;;;;;;;;0.94;74.31;99719.84;4974969;28;19953;-79
2022/03/03 10:40:09;;;;;;;;;;;;;;;0.92;74.13;99725.06;4974231;28;19972;-78
2022/03/03 10:42:36;;;;;;;;;;;;;;;0.93;74.10;99725.97;4973688;28;19922;-78
2022/03/03 10:45:11;;;;;;;;;;;;;;;0.89;73.99;99718.16;4974698;28;19980;-78
2022/03/03 10:47:36;;;;;;;;;;;;;;;1.00;74.22;99719.84;4973916;28;19956;-77
2022/03/03 10:50:05;;;;;;;;;;;;;;;0.94;74.34;99718.09;4973280;28;19969;-79
2022/03/03 10:52:33;;;;;;;;;;;;;;;1.01;74.20;99722.44;4973629;28;19918;-77
2022/03/03 10:55:01;;;;;;;;;;;;;;;1.05;74.38;99720.66;4973924;28;19929;-78
2022/03/03 10:57:32;;;;;;;;;;;;;;;0.99;74.29;99710.25;4971943;28;19918;-78
2022/03/03 10:59:59;;;;;;;;;;;;;;;1.04;74.21;99718.97;4973851;28;20581;-79
2022/03/03 11:02:28;;;;;;;;;;;;;;;1.02;74.34;99713.75;4973024;28;19919;-79
2022/03/03 11:04:57;;;;;;;;;;;;;;;1.04;74.19;99711.97;4974369;28;20358;-77
2022/03/03 11:07:22;;;;;;;;;;;;;;;0.97;73.91;99698.97;4973823;28;19969;-78
2022/03/03 11:09:48;;;;;;;;;;;;;;;1.00;73.88;99698.94;4973480;28;19956;-79
2022/03/03 11:12:14;;;;;;;;;;;;;;;0.98;73.79;99698.97;4972908;28;19918;-79
2022/03/03 11:14:39;;;;;;;;;;;;;;;1.00;73.95;99701.56;4974167;28;19929;-79
2022/03/03 11:17:06;;;;;;;;;;;;;;;1.05;74.24;99689.34;4972789;28;19918;-79
2022/03/03 11:19:31;;;;;;;;;;;;;;;0.97;74.01;99693.75;4974079;28;19922;-77
2022/03/03 11:21:57;;;;;;;;;;;;;;;0.99;74.25;99687.66;4973917;28;19925;-79
2022/03/03 11:24:23;;;;;;;;;;;;;;;0.97;74.13;99691.13;4973974;28;20484;-78
2022/03/03 11:26:49;;;;;;;;;;;;;;;1.03;74.23;99694.59;4971895;28;19914;-78
2022/03/03 11:29:16;;;;;;;;;;;;;;;1.08;74.20;99686.72;4973895;28;19922;-79
2022/03/03 11:31:43;;;;;;;;;;;;;;;1.05;74.13;99681.53;4973137;28;19918;-79
2022/03/03 11:34:38;;;;;;;;;;;;;;;1.06;74.18;99678.91;4973848;28;20439;-77
2022/03/03 11:37:07;;;;;;;;;;;;;;;1.06;73.78;99672.84;4973706;28;19941;-78
2022/03/03 11:39:34;;;;;;;;;;;;;;;1.11;73.99;99663.22;4973166;28;19922;-78
2022/03/03 11:42:15;;;;;;;;;;;;;;;1.02;73.86;99666.78;4971216;28;19965;-80
2022/03/03 11:44:41;;;;;;;;;;;;;;;1.02;73.93;99664.16;4973579;28;20388;-79
2022/03/03 11:47:17;;;;;;;;;;;;;;;1.06;74.36;99665.00;4972355;28;19919;-77
2022/03/03 11:50:04;;;;;;;;;;;;;;;1.13;74.13;99660.59;4988124;28;20388;-79
2022/03/03 11:52:29;;;;;;;;;;;;;;;1.16;74.03;99660.59;4972215;28;19933;-80
2022/03/03 11:55:00;;;;;;;;;;;;;;;1.12;74.08;99651.91;4972193;28;20365;-78
2022/03/03 11:57:29;;;;;;;;;;;;;;;1.12;73.89;99651.03;4970497;28;19973;-77
2022/03/03 12:00:06;;;;;;;;;;;;;;;1.11;73.79;99644.94;4972545;28;19920;-77
2022/03/03 12:02:32;;;;;;;;;;;;;;;1.17;73.78;99639.69;4973490;28;19918;-78
2022/03/03 12:05:16;;;;;;;;;;;;;;;1.21;73.64;99637.91;4973427;28;19918;-79
2022/03/03 12:07:46;;;;;;;;;;;;;;;1.23;73.64;99634.44;4973331;28;19973;-79
2022/03/03 12:10:13;;;;;;;;;;;;;;;1.21;73.37;99640.53;4973405;28;19918;-79
2022/03/03 12:12:39;;;;;;;;;;;;;;;1.21;73.51;99636.19;4971788;28;19922;-77
2022/03/03 12:15:04;;;;;;;;;;;;;;;1.20;73.25;99631.84;4973383;28;19976;-80
2022/03/03 12:17:49;;;;;;;;;;;;;;;1.15;73.22;99620.59;4988054;28;19966;-79
2022/03/03 12:20:24;;;;;;;;;;;;;;;1.18;73.17;99620.56;4971051;28;20357;-78
2022/03/03 12:23:08;;;;;;;;;;;;;;;1.18;73.02;99619.66;4973024;28;20254;-79
2022/03/03 12:25:51;;;;;;;;;;;;;;;1.20;72.99;99617.94;4988043;28;19957;-80
2022/03/03 12:28:21;;;;;;;;;;;;;;;1.25;72.82;99614.41;4970552;28;20309;-80
2022/03/03 12:30:47;;;;;;;;;;;;;;;1.26;72.79;99621.38;4972124;28;19918;-78
2022/03/03 12:33:22;;;;;;;;;;;;;;;1.29;72.87;99614.38;4972874;28;19934;-77
2022/03/03 12:35:48;;;;;;;;;;;;;;;1.26;72.56;99610.03;4972558;28;19922;-79
2022/03/03 12:38:13;;;;;;;;;;;;;;;1.25;72.66;99601.34;4972302;28;19918;-78
2022/03/03 12:40:38;;;;;;;;;;;;;;;1.25;72.43;99609.19;4971612;28;19996;-77
2022/03/03 12:43:12;;;;;;;;;;;;;;;1.28;72.43;99597.84;4970815;28;19946;-79
2022/03/03 12:45:38;;;;;;;;;;;;;;;1.27;72.42;99596.97;4971194;28;20048;-78
2022/03/03 12:48:03;;;;;;;;;;;;;;;1.24;72.56;99589.16;4973037;28;20377;-77
2022/03/03 12:50:29;;;;;;;;;;;;;;;1.37;72.97;99578.63;4972650;28;20369;-79
2022/03/03 12:52:55;;;;;;;;;;;;;;;1.69;76.02;99587.91;4970429;28;20285;-78
2022/03/03 12:55:25;;;;;;;;;;;;;;;1.95;79.27;99579.81;4974435;28;19930;-77
2022/03/03 12:57:51;;;;;;;;;;;;;;;2.02;81.83;99583.22;4974232;28;19937;-77
2022/03/03 13:00:16;;;;;;;;;;;;;;;2.09;83.91;99579.63;4975990;28;19918;-77
2022/03/03 13:02:53;;;;;;;;;;;;;;;2.15;85.57;99575.22;4976531;28;20476;-76
2022/03/03 13:05:27;;;;;;;;;;;;;;;2.28;86.90;99575.06;4976036;28;20400;-77
2022/03/03 13:07:52;;;;;;;;;;;;;;;2.31;87.90;99570.69;4976364;28;19922;-78
2022/03/03 13:10:17;;;;;;;;;;;;;;;2.35;88.64;99567.13;4990883;28;19929;-77
2022/03/03 13:12:44;;;;;;;;;;;;;;;2.39;89.47;99557.47;4974923;28;20057;-79
2022/03/03 13:15:09;;;;;;;;;;;;;;;2.36;90.13;99547.94;4975128;28;19918;-79
2022/03/03 13:17:35;;;;;;;;;;;;;;;2.33;90.91;99550.59;4976079;28;19945;-79
2022/03/03 13:20:03;;;;;;;;;;;;;;;2.28;91.79;99544.56;4975981;28;19922;-78
2022/03/03 13:22:29;;;;;;;;;;;;;;;2.27;93.01;99545.44;4976327;28;19918;-78
2022/03/03 13:25:13;;;;;;;;;;;;;;;2.38;94.15;99545.31;4976203;28;19946;-79
2022/03/03 13:27:48;;;;;;;;;;;;;;;2.35;95.07;99540.97;4974960;28;19919;-79
2022/03/03 13:30:13;;;;;;;;;;;;;;;2.38;96.46;99529.63;4976068;28;19954;-77
2022/03/03 13:32:53;;;;;;;;;;;;;;;2.52;97.91;99535.53;4976091;28;19950;-78
2022/03/03 13:35:19;;;;;;;;;;;;;;;2.70;99.58;99539.63;4976062;28;19918;-77
2022/03/03 13:37:45;;;;;;;;;;;;;;;2.89;100.00;99531.50;4975969;28;19929;-77
2022/03/03 13:40:16;;;;;;;;;;;;;;;2.96;100.00;99533.13;4976093;28;19922;-77
2022/03/03 13:42:41;;;;;;;;;;;;;;;3.06;100.00;99529.47;4974215;28;20005;-78
2022/03/03 13:45:07;;;;;;;;;;;;;;;3.18;100.00;99528.41;4975752;28;20452;-76
2022/03/03 13:47:41;;;;;;;;;;;;;;;3.24;100.00;99523.06;4975723;28;19922;-77
2022/03/03 13:50:07;;;;;;;;;;;;;;;3.26;100.00;99533.50;4975727;28;19925;-77
2022/03/03 13:52:34;;;;;;;;;;;;;;;3.31;100.00;99533.44;4975337;28;20373;-78
2022/03/03 13:55:19;;;;;;;;;;;;;;;3.45;100.00;99523.56;4974550;28;19968;-79
2022/03/03 13:57:45;;;;;;;;;;;;;;;3.43;100.00;99528.84;4972559;28;19922;-78
2022/03/03 14:00:13;;;;;;;;;;;;;;;3.51;100.00;99535.69;4974820;28;19973;-78
2022/03/03 14:03:12;;;;;;;;;;;;;;;3.57;100.00;99525.09;4975040;28;19922;-80
2022/03/03 14:05:47;;;;;;;;;;;;;;;3.67;100.00;99524.06;4973516;28;19918;-77
2022/03/03 14:08:23;;;;;;;;;;;;;;;3.61;100.00;99511.06;4973915;28;19984;-78
2022/03/03 14:11:02;;;;;;;;;;;;;;;3.67;100.00;99510.94;4975174;28;20020;-76
2022/03/03 14:13:29;;;;;;;;;;;;;;;3.67;100.00;99500.47;4973467;28;19961;-77
2022/03/03 14:15:55;;;;;;;;;;;;;;;3.72;100.00;99501.22;4975305;28;20052;-77
2022/03/03 14:18:21;;;;;;;;;;;;;;;3.77;100.00;99496.75;4975243;28;19941;-77
2022/03/03 14:20:54;;;;;;;;;;;;;;;3.80;100.00;99495.84;4974973;28;20487;-79
2022/03/03 14:23:20;;;;;;;;;;;;;;;3.84;100.00;99496.63;4975147;28;19918;-80
2022/03/03 14:25:46;;;;;;;;;;;;;;;3.89;100.00;99490.41;4975047;28;20288;-77
2022/03/03 14:28:11;;;;;;;;;;;;;;;3.40;100.00;99489.59;4973915;28;19925;-79
2022/03/03 14:30:36;;;;;;;;;;;;;;;2.80;100.00;99492.38;4973654;28;19922;-79
2022/03/03 14:33:02;;;;;;;;;;;;;;;2.51;100.00;99493.69;4973564;28;19918;-79
2022/03/03 14:35:27;;;;;;;;;;;;;;;2.42;100.00;99493.81;4974754;28;19922;-80
2022/03/03 14:37:52;;;;;;;;;;;;;;;2.22;99.77;99494.06;4972604;28;20439;-77
2022/03/03 14:40:18;;;;;;;;;;;;;;;2.21;98.17;99501.06;4973470;28;20372;-77
2022/03/03 14:42:43;;;;;;;;;;;;;;;2.18;97.06;99493.25;4972751;28;19918;-79
2022/03/03 14:45:12;;;;;;;;;;;;;;;2.07;95.27;99492.53;4973420;28;20340;-77
2022/03/03 14:47:42;;;;;;;;;;;;;;;1.94;94.20;99487.47;4989128;28;19925;-79
2022/03/03 14:50:08;;;;;;;;;;;;;;;1.94;93.24;99484.00;4974296;28;19930;-79
2022/03/03 14:52:34;;;;;;;;;;;;;;;1.89;92.37;99488.41;4974497;28;19964;-79
2022/03/03 14:54:59;;;;;;;;;;;;;;;1.84;91.61;99488.47;4973279;28;20589;-79
2022/03/03 14:57:24;;;;;;;;;;;;;;;1.70;90.73;99482.53;4973024;28;19918;-79
2022/03/03 14:59:49;;;;;;;;;;;;;;;1.68;89.86;99476.50;4974401;28;20274;-78
2022/03/03 15:02:15;;;;;;;;;;;;;;;1.64;89.23;99478.25;4974563;28;20049;-76
2022/03/03 15:04:40;;;;;;;;;;;;;;;1.53;88.73;99480.13;4974292;28;20352;-78
2022/03/03 15:07:08;;;;;;;;;;;;;;;1.51;87.95;99474.91;4973647;28;20028;-79
2022/03/03 15:09:33;;;;;;;;;;;;;;;1.55;87.74;99474.00;4973397;28;19929;-77
2022/03/03 15:11:59;;;;;;;;;;;;;;;1.54;87.04;99472.25;4971782;28;19922;-79
2022/03/03 15:14:24;;;;;;;;;;;;;;;1.40;86.04;99468.94;4973989;28;20042;-78
2022/03/03 15:16:49;;;;;;;;;;;;;;;1.35;85.62;99470.75;4973858;28;20008;-79
2022/03/03 15:19:15;;;;;;;;;;;;;;;1.36;85.42;99470.72;4972789;28;20016;-77
2022/03/03 15:21:42;;;;;;;;;;;;;;;1.42;85.00;99472.38;4974022;28;19922;-78
2022/03/03 15:24:08;;;;;;;;;;;;;;;1.42;84.71;99478.50;4973550;28;20277;-78
2022/03/03 15:26:35;;;;;;;;;;;;;;;1.34;84.46;99479.44;4974089;28;19929;-79
2022/03/03 15:29:04;;;;;;;;;;;;;;;1.34;84.30;99480.31;4972780;28;19941;-79
2022/03/03 15:31:29;;;;;;;;;;;;;;;1.27;84.05;99479.50;4973368;28;19928;-78
2022/03/03 15:36:45;;;;;;;;;;;;;;;1.23;83.54;99474.34;4974256;28;19926;-78
2022/03/03 15:39:14;;;;;;;;;;;;;;;1.17;83.71;99472.66;4973418;28;19929;-77
2022/03/03 15:41:40;;;;;;;;;;;;;;;1.16;83.38;99480.50;4973061;28;19929;-78
2022/03/03 15:44:06;;;;;;;;;;;;;;;1.20;83.39;99485.69;4970898;28;19922;-78
2022/03/03 15:46:31;;;;;;;;;;;;;;;1.06;83.30;99484.94;4973627;28;20374;-78
2022/03/03 15:48:56;;;;;;;;;;;;;;;1.15;83.32;99490.09;4973576;28;20384;-78
2022/03/03 15:51:22;;;;;;;;;;;;;;;1.21;83.36;99490.03;4988460;28;19926;-77
2022/03/03 15:53:47;;;;;;;;;;;;;;;1.16;83.26;99498.75;4972972;28;19925;-76
2022/03/03 15:56:12;;;;;;;;;;;;;;;1.14;82.84;99488.34;4973494;28;20020;-75
2022/03/03 15:58:39;;;;;;;;;;;;;;;1.14;82.75;99487.47;4970649;28;20285;-77
2022/03/03 16:01:06;;;;;;;;;;;;;;;1.11;82.81;99488.38;4973228;28;19922;-78
2022/03/03 16:03:31;;;;;;;;;;;;;;;1.04;82.66;99487.56;4973208;28;19926;-78
2022/03/03 16:05:57;;;;;;;;;;;;;;;1.02;82.63;99491.06;4972935;28;20431;-78
2022/03/03 16:08:22;;;;;;;;;;;;;;;1.01;82.54;99491.94;4971927;28;19925;-77
2022/03/03 16:10:47;;;;;;;;;;;;;;;0.96;82.40;99499.81;4973090;28;19918;-76
2022/03/03 16:13:13;;;;;;;;;;;;;;;0.96;82.71;99499.81;5492350;23;20047;-77
2022/03/03 16:15:39;;;;;;;;;;;;;;;0.96;82.80;99498.94;4991113;28;19987;-77
2022/03/03 16:18:04;;;;;;;;;;;;;;;1.02;82.65;99497.16;4992507;28;19924;-78
2022/03/03 16:20:29;;;;;;;;;;;;;;;1.03;82.64;99495.41;4991305;28;20293;-80
2022/03/03 16:22:54;;;;;;;;;;;;;;;1.06;81.89;99495.38;4991173;28;19922;-80
2022/03/03 16:25:20;;;;;;;;;;;;;;;0.92;82.03;99498.09;4992368;28;19922;-80
2022/03/03 16:27:45;;;;;;;;;;;;;;;0.92;82.10;99505.91;4990810;28;19984;-79
2022/03/03 16:30:11;;;;;;;;;;;;;;;0.99;82.28;99498.91;4990492;28;19924;-80
2022/03/03 16:32:36;;;;;;;;;;;;;;;0.84;82.03;99500.75;4991712;28;19933;-81
2022/03/03 16:35:01;;;;;;;;;;;;;;;0.89;81.89;99499.00;4989489;28;19928;-80
2022/03/03 16:37:27;;;;;;;;;;;;;;;0.79;82.08;99501.69;4991227;28;19987;-81
2022/03/03 16:39:53;;;;;;;;;;;;;;;0.82;82.13;99505.13;4991565;28;19968;-81
2022/03/03 16:42:19;;;;;;;;;;;;;;;0.88;82.01;99507.69;4991129;28;20016;-80
2022/03/03 16:44:46;;;;;;;;;;;;;;;0.88;81.81;99512.91;4991890;28;20364;-77
2022/03/03 16:47:12;;;;;;;;;;;;;;;0.84;82.12;99510.34;4989860;28;20429;-81
2022/03/03 16:49:37;;;;;;;;;;;;;;;0.88;81.91;99507.69;4991925;28;20034;-77
2022/03/03 16:52:05;;;;;;;;;;;;;;;0.82;81.85;99520.78;4990227;28;19918;-81
2022/03/03 16:54:30;;;;;;;;;;;;;;;0.71;81.86;99526.06;4991286;28;19925;-79
2022/03/03 16:56:56;;;;;;;;;;;;;;;0.76;81.73;99528.66;4989986;28;20369;-81
2022/03/03 16:59:22;;;;;;;;;;;;;;;0.83;81.47;99519.91;4991734;28;20353;-79
2022/03/03 17:01:47;;;;;;;;;;;;;;;0.75;81.32;99531.28;4992234;28;19925;-80
2022/03/03 17:04:12;;;;;;;;;;;;;;;0.74;81.44;99534.78;4990923;28;19936;-80
2022/03/03 17:06:38;;;;;;;;;;;;;;;0.89;81.49;99529.41;4990162;28;20347;-80
2022/03/03 17:09:04;;;;;;;;;;;;;;;0.85;81.01;99533.81;4990302;28;20433;-81
2022/03/03 17:11:31;;;;;;;;;;;;;;;0.80;80.78;99539.91;4991450;28;19929;-78
2022/03/03 17:13:57;;;;;;;;;;;;;;;0.82;81.18;99544.25;4990187;28;19929;-76
2022/03/03 17:16:23;;;;;;;;;;;;;;;0.82;80.92;99544.25;4990037;28;20380;-76
2022/03/03 17:18:48;;;;;;;;;;;;;;;0.82;80.74;99554.69;4991545;28;19956;-78
2022/03/03 17:21:14;;;;;;;;;;;;;;;0.76;80.69;99554.72;4991423;28;19929;-77
2022/03/03 17:23:39;;;;;;;;;;;;;;;0.78;80.94;99552.97;4985442;28;20008;-81
2022/03/03 17:26:04;;;;;;;;;;;;;;;0.79;80.74;99553.84;4991191;28;19918;-80
2022/03/03 17:28:30;;;;;;;;;;;;;;;0.79;80.41;99566.91;4988610;28;20388;-78
2022/03/03 17:30:55;;;;;;;;;;;;;;;0.80;80.14;99563.41;4989649;28;19917;-81
2022/03/03 17:33:21;;;;;;;;;;;;;;;0.73;80.17;99570.41;4991547;28;19932;-78
2022/03/03 17:35:46;;;;;;;;;;;;;;;0.79;80.07;99566.91;4990117;28;19964;-80
2022/03/03 17:38:11;;;;;;;;;;;;;;;0.82;79.82;99564.28;4990458;28;20013;-79
2022/03/03 17:40:36;;;;;;;;;;;;;;;0.76;79.75;99573.00;4993862;28;19918;-78
2022/03/03 17:43:02;;;;;;;;;;;;;;;0.78;79.69;99571.22;4994126;28;20332;-78
2022/03/03 17:45:27;;;;;;;;;;;;;;;0.76;79.49;99573.00;4994375;28;19922;-82
2022/03/03 17:47:53;;;;;;;;;;;;;;;0.76;79.29;99573.00;4994354;28;19921;-81
2022/03/03 17:50:18;;;;;;;;;;;;;;;0.78;79.17;99568.63;4994822;28;19922;-79
2022/03/03 17:52:44;;;;;;;;;;;;;;;0.78;79.46;99568.63;4993859;28;19922;-81
2022/03/03 17:55:11;;;;;;;;;;;;;;;0.74;79.05;99572.16;4992754;28;19937;-78
2022/03/03 17:57:37;;;;;;;;;;;;;;;0.78;78.97;99568.63;4993359;28;19922;-79
2022/03/03 18:00:04;;;;;;;;;;;;;;;0.79;78.87;99569.50;4993208;28;19937;-81
2022/03/03 18:02:29;;;;;;;;;;;;;;;0.75;78.73;99573.00;4993137;28;20141;-79
2022/03/03 18:04:55;;;;;;;;;;;;;;;0.79;78.53;99566.91;4991415;28;20052;-80
2022/03/03 18:07:20;;;;;;;;;;;;;;;0.82;78.75;99580.78;4993713;28;19929;-80
2022/03/03 18:09:47;;;;;;;;;;;;;;;0.73;78.25;99575.63;4993750;28;19928;-79
2022/03/03 18:12:12;;;;;;;;;;;;;;;0.67;78.31;99578.25;4990964;28;19933;-79
2022/03/03 18:14:39;;;;;;;;;;;;;;;0.76;78.37;99575.59;4993790;28;19922;-77
2022/03/03 18:17:05;;;;;;;;;;;;;;;0.58;78.12;99583.56;4992898;28;19929;-79
2022/03/03 18:19:30;;;;;;;;;;;;;;;0.69;78.19;99579.13;4994068;28;19929;-81
2022/03/03 18:21:55;;;;;;;;;;;;;;;0.77;78.35;99589.53;4994344;28;20411;-80
2022/03/03 18:24:20;;;;;;;;;;;;;;;0.84;78.11;99591.22;4994239;28;19960;-78
2022/03/03 18:26:46;;;;;;;;;;;;;;;0.71;77.82;99598.25;4993406;28;19936;-77
2022/03/03 18:29:11;;;;;;;;;;;;;;;0.85;77.74;99595.56;4992614;28;20012;-78
2022/03/03 18:31:36;;;;;;;;;;;;;;;0.69;77.25;99600.84;4994315;28;19918;-82
2022/03/03 18:34:02;;;;;;;;;;;;;;;0.76;77.58;99600.81;4993724;28;19926;-78
2022/03/03 18:36:27;;;;;;;;;;;;;;;0.70;77.21;99610.44;4993482;28;19921;-78
2022/03/03 18:38:53;;;;;;;;;;;;;;;0.72;76.95;99605.19;4994374;28;19972;-78
2022/03/03 18:41:18;;;;;;;;;;;;;;;0.72;77.04;99602.59;4993584;28;20357;-78
2022/03/03 18:43:43;;;;;;;;;;;;;;;0.71;76.75;99600.84;4992084;28;19996;-78
2022/03/03 18:46:09;;;;;;;;;;;;;;;0.74;76.83;99600.84;4992466;28;19926;-80
2022/03/03 18:48:34;;;;;;;;;;;;;;;0.74;76.77;99600.84;4992693;28;20008;-81
2022/03/03 18:51:00;;;;;;;;;;;;;;;0.79;76.62;99593.84;4991000;28;19922;-80
2022/03/03 18:53:25;;;;;;;;;;;;;;;0.75;76.37;99597.38;4993296;28;19929;-80
2022/03/03 18:55:50;;;;;;;;;;;;;;;0.76;76.39;99601.69;4991763;28;20270;-77
2022/03/03 18:58:15;;;;;;;;;;;;;;;0.75;76.07;99604.31;4992568;28;19922;-79
2022/03/03 19:00:41;;;;;;;;;;;;;;;0.79;76.01;99606.03;4992324;28;20354;-78
2022/03/03 19:03:06;;;;;;;;;;;;;;;0.80;76.22;99605.13;4993157;28;19928;-79
2022/03/03 19:05:31;;;;;;;;;;;;;;;0.76;76.14;99611.25;4992762;28;19929;-79
2022/03/03 19:07:56;;;;;;;;;;;;;;;0.77;75.93;99607.78;4992745;28;19933;-79
2022/03/03 19:10:22;;;;;;;;;;;;;;;0.80;75.82;99618.19;4993033;28;20604;-78
2022/03/03 19:12:47;;;;;;;;;;;;;;;0.79;75.62;99616.47;4992081;28;19917;-77
2022/03/03 19:15:14;;;;;;;;;;;;;;;0.75;75.61;99618.22;4993433;28;19960;-79
2022/03/03 19:17:39;;;;;;;;;;;;;;;0.77;75.74;99621.69;4992864;28;19930;-79
2022/03/03 19:20:05;;;;;;;;;;;;;;;0.79;75.55;99635.56;4992141;28;19933;-77
2022/03/03 19:22:31;;;;;;;;;;;;;;;0.75;75.32;99633.00;4992296;28;20412;-76
2022/03/03 19:24:56;;;;;;;;;;;;;;;0.78;75.36;99639.06;4993471;28;19973;-78
2022/03/03 19:27:21;;;;;;;;;;;;;;;0.78;75.28;99641.66;4990107;28;19968;-78
2022/03/03 19:29:47;;;;;;;;;;;;;;;0.81;75.05;99641.66;4992571;28;19968;-77
2022/03/03 19:34:56;;;;;;;;;;;;;;;0.78;74.98;99641.66;4993254;28;19980;-76
2022/03/03 19:37:21;;;;;;;;;;;;;;;0.82;74.81;99647.75;4991496;28;20374;-77
2022/03/03 19:39:46;;;;;;;;;;;;;;;0.77;74.79;99645.16;4992124;28;19925;-78
2022/03/03 19:42:12;;;;;;;;;;;;;;;0.80;74.63;99646.88;4991409;28;19921;-78
2022/03/03 19:44:38;;;;;;;;;;;;;;;0.80;74.64;99650.38;4992166;28;19926;-79
2022/03/03 19:47:04;;;;;;;;;;;;;;;0.82;74.48;99643.38;4992517;28;20053;-77
2022/03/03 19:49:29;;;;;;;;;;;;;;;0.82;74.41;99648.59;4992505;28;19922;-77
2022/03/03 19:51:55;;;;;;;;;;;;;;;0.87;74.46;99646.84;4992283;28;19929;-77
2022/03/03 19:54:20;;;;;;;;;;;;;;;0.83;74.26;99639.91;4992774;28;19926;-77
2022/03/03 19:56:46;;;;;;;;;;;;;;;0.85;74.13;99651.19;4990921;28;19917;-76
2022/03/03 19:59:11;;;;;;;;;;;;;;;0.83;74.04;99654.69;4990796;28;19937;-77
2022/03/03 20:01:38;;;;;;;;;;;;;;;0.83;73.63;99654.69;4991800;28;20274;-76
2022/03/03 20:04:03;;;;;;;;;;;;;;;0.84;73.71;99661.66;4992195;28;19976;-77
2022/03/03 20:06:29;;;;;;;;;;;;;;;0.83;73.80;99657.28;4991123;28;19965;-77